logo
Search for airport 
image banner adimage banner adimage banner ad
image banner ad

FAGRAS - Graskop

Located in , South Africa

ICAO - , IATA -

Data provided by Airmate  

General information

Coordinates: S24°57'21" E30°51'3"
Elevation is 4853 feet MSL.
 
View others Airports in Kwazulu-Natal

Operational data

Special qualification required
Current time UTC:
Current local time:
METAR: FAKN 140400Z AUTO 27001KT //// // ////// 15/14 Q1025
TAF: TAF FAKN 140300Z 1404/1415 VRB03KT 9999 BKN020 TX25/1412Z TN14/1404Z PROB30 TEMPO 1404/1406 0800 FG BKN009 PROB30 TEMPO 1404/1408 5000 BR BKN015 BECMG 1408/1410 07008KT 9999 SCT025 PROB30 TEMPO 1412/1415 FEW035TCU
View NOTAMs / SUP AIP / TFR affecting this airport [VIEW]
Communications frequencies: [VIEW]

Runways:

RWY identifierQFULength (ft)Width (ft)SurfaceLDA (ft)
01170°246166GRASS
19350°246166GRASS
0631°124766GRASS
24211°124766GRASS
12102°137866GRASS
30282°137866GRASS
15138°267433ASPH
33318°267433ASPH

Airport contact information

Address: South Africa

Satellite view of FAGRAS